Time;durP1;ratioP1;P1;durP2;ratioP2;P2;SDS_P1;SDS_P2;PMS_P1;PMS_P2;Temp;Humidity;BMP_temperature;BMP_pressure;BME280_temperature;BME280_humidity;BME280_pressure;Samples;Min_cycle;Max_cycle;Signal;HPM_P1;HPM_P2
2024/03/15 00:00:09;;;;;;;10.17;5.90;;;;;;;;;;5047960;28;20277;-57
2024/03/15 00:02:34;;;;;;;12.27;6.45;;;;;;;;;;5050580;28;20029;-56
2024/03/15 00:05:00;;;;;;;12.67;6.47;;;;;;;;;;5050636;28;20041;-57
2024/03/15 00:07:25;;;;;;;12.55;6.30;;;;;;;;;;5047112;28;20042;-59
2024/03/15 00:09:51;;;;;;;12.10;7.10;;;;;;;;;;5049490;28;20033;-58
2024/03/15 00:12:17;;;;;;;12.35;6.40;;;;;;;;;;5050822;28;20037;-57
2024/03/15 00:14:42;;;;;;;12.75;6.82;;;;;;;;;;5050294;28;20039;-59
2024/03/15 00:17:12;;;;;;;14.68;6.80;;;;;;;;;;5049226;28;20037;-57
2024/03/15 00:19:38;;;;;;;12.60;6.57;;;;;;;;;;5049524;28;20096;-58
2024/03/15 00:22:04;;;;;;;11.27;6.47;;;;;;;;;;5051395;28;20262;-59
2024/03/15 00:24:30;;;;;;;11.55;6.35;;;;;;;;;;5049838;28;20060;-58
2024/03/15 00:26:56;;;;;;;15.63;7.10;;;;;;;;;;5050296;28;20053;-58
2024/03/15 00:29:21;;;;;;;14.18;6.55;;;;;;;;;;5050220;28;20040;-59
2024/03/15 00:31:47;;;;;;;13.00;6.80;;;;;;;;;;5049227;28;20029;-59
2024/03/15 00:34:12;;;;;;;12.52;6.88;;;;;;;;;;5049955;28;20034;-59
2024/03/15 00:36:38;;;;;;;11.90;6.80;;;;;;;;;;5051280;28;20057;-58
2024/03/15 00:39:04;;;;;;;13.35;7.22;;;;;;;;;;5049904;28;20026;-58
2024/03/15 00:41:29;;;;;;;14.07;8.07;;;;;;;;;;5050211;28;20047;-58
2024/03/15 00:43:55;;;;;;;16.27;6.78;;;;;;;;;;5050089;28;20064;-57
2024/03/15 00:46:21;;;;;;;12.57;6.55;;;;;;;;;;5048878;28;20022;-60
2024/03/15 00:48:47;;;;;;;10.73;6.13;;;;;;;;;;5050936;28;20033;-59
2024/03/15 00:51:13;;;;;;;13.15;6.82;;;;;;;;;;5049425;28;20033;-58
2024/03/15 00:53:39;;;;;;;14.40;6.80;;;;;;;;;;5052201;28;20025;-56
2024/03/15 00:56:05;;;;;;;11.93;6.85;;;;;;;;;;5053608;28;20250;-58
2024/03/15 00:58:30;;;;;;;15.23;6.45;;;;;;;;;;5051371;28;20029;-58
2024/03/15 01:01:00;;;;;;;13.52;7.00;;;;;;;;;;5054302;28;20128;-58
2024/03/15 01:03:26;;;;;;;15.07;7.13;;;;;;;;;;5053475;28;20037;-59
2024/03/15 01:05:52;;;;;;;12.70;7.07;;;;;;;;;;5052889;28;20318;-57
2024/03/15 01:08:18;;;;;;;18.30;6.80;;;;;;;;;;5053907;28;20273;-57
2024/03/15 01:10:45;;;;;;;15.23;7.37;;;;;;;;;;5052387;28;20033;-58
2024/03/15 01:13:10;;;;;;;11.63;6.93;;;;;;;;;;5052451;28;20290;-58
2024/03/15 01:15:37;;;;;;;13.03;7.00;;;;;;;;;;5053548;28;20259;-59
2024/03/15 01:18:03;;;;;;;13.07;7.13;;;;;;;;;;5052178;28;20029;-56
2024/03/15 01:20:29;;;;;;;15.65;6.80;;;;;;;;;;5052790;28;20326;-57
2024/03/15 01:22:55;;;;;;;11.85;6.78;;;;;;;;;;5053542;28;20067;-58
2024/03/15 01:25:21;;;;;;;14.67;6.57;;;;;;;;;;5056703;28;20111;-59
2024/03/15 01:27:47;;;;;;;15.05;7.05;;;;;;;;;;5056977;28;20345;-59
2024/03/15 01:30:13;;;;;;;12.60;7.40;;;;;;;;;;5055329;28;20097;-59
2024/03/15 01:32:38;;;;;;;14.27;7.45;;;;;;;;;;5054523;28;20029;-58
2024/03/15 01:35:04;;;;;;;14.40;7.30;;;;;;;;;;5055624;28;20037;-59
2024/03/15 01:37:29;;;;;;;18.17;8.00;;;;;;;;;;5056099;28;20584;-58
2024/03/15 01:39:55;;;;;;;13.38;7.70;;;;;;;;;;5055243;28;20033;-58
2024/03/15 01:42:20;;;;;;;11.97;6.63;;;;;;;;;;5055125;28;20060;-56
2024/03/15 01:44:55;;;;;;;11.93;6.80;;;;;;;;;;5055787;28;20370;-59
2024/03/15 01:47:21;;;;;;;17.23;8.30;;;;;;;;;;5056331;28;20037;-56
2024/03/15 01:49:47;;;;;;;14.15;7.53;;;;;;;;;;5055864;28;20269;-56
2024/03/15 01:52:15;;;;;;;14.82;6.85;;;;;;;;;;5052142;28;20034;-57
2024/03/15 01:54:41;;;;;;;12.03;7.13;;;;;;;;;;5057228;28;20056;-56
2024/03/15 01:57:08;;;;;;;13.45;6.95;;;;;;;;;;5056286;28;20266;-58
2024/03/15 01:59:33;;;;;;;12.40;6.60;;;;;;;;;;5055599;28;20056;-59
2024/03/15 02:02:01;;;;;;;14.53;6.93;;;;;;;;;;5055513;28;20046;-58
2024/03/15 02:04:26;;;;;;;11.70;6.60;;;;;;;;;;5051600;28;20030;-57
2024/03/15 02:06:55;;;;;;;13.87;7.60;;;;;;;;;;5054435;28;20290;-57
2024/03/15 02:09:21;;;;;;;15.07;7.60;;;;;;;;;;5054317;28;20273;-58
2024/03/15 02:11:47;;;;;;;12.45;7.45;;;;;;;;;;5051336;28;20266;-61
2024/03/15 02:14:16;;;;;;;14.20;6.13;;;;;;;;;;5057022;28;20028;-59
2024/03/15 02:16:42;;;;;;;14.53;7.70;;;;;;;;;;5056425;28;20031;-55
2024/03/15 02:19:09;;;;;;;11.23;6.35;;;;;;;;;;5056352;28;20263;-58
2024/03/15 02:21:35;;;;;;;12.07;6.37;;;;;;;;;;5053297;28;20060;-58
2024/03/15 02:24:01;;;;;;;13.93;6.77;;;;;;;;;;5053419;28;20315;-58
2024/03/15 02:26:26;;;;;;;16.80;6.80;;;;;;;;;;5055050;28;20116;-59
2024/03/15 02:28:53;;;;;;;16.73;6.97;;;;;;;;;;5051847;28;20025;-58
2024/03/15 02:31:21;;;;;;;12.55;6.70;;;;;;;;;;5055094;28;20030;-57
2024/03/15 02:33:47;;;;;;;11.57;6.83;;;;;;;;;;5053322;28;20049;-59
2024/03/15 02:36:13;;;;;;;15.25;7.47;;;;;;;;;;5054037;28;20337;-56
2024/03/15 02:38:38;;;;;;;17.00;7.70;;;;;;;;;;5053387;28;20045;-59
2024/03/15 02:41:04;;;;;;;16.50;7.75;;;;;;;;;;5051733;28;20026;-60
2024/03/15 02:43:32;;;;;;;22.75;6.80;;;;;;;;;;5054393;28;20049;-59
2024/03/15 02:45:58;;;;;;;15.77;7.20;;;;;;;;;;5052649;28;20089;-60
2024/03/15 02:48:23;;;;;;;13.33;6.73;;;;;;;;;;5053722;28;20263;-59
2024/03/15 02:50:48;;;;;;;13.53;6.63;;;;;;;;;;5055013;28;20048;-58
2024/03/15 02:53:14;;;;;;;11.73;5.80;;;;;;;;;;5054273;28;20033;-57
2024/03/15 02:55:39;;;;;;;14.65;5.70;;;;;;;;;;5052642;28;20032;-60
2024/03/15 02:58:09;;;;;;;15.17;6.40;;;;;;;;;;5054778;28;20047;-59
2024/03/15 03:00:35;;;;;;;11.33;5.63;;;;;;;;;;5052444;28;20029;-57
2024/03/15 03:03:00;;;;;;;10.13;5.90;;;;;;;;;;5053332;28;20286;-57
2024/03/15 03:05:26;;;;;;;11.53;5.07;;;;;;;;;;5054450;28;20029;-58
2024/03/15 03:07:51;;;;;;;14.50;5.70;;;;;;;;;;5059206;28;20025;-58
2024/03/15 03:10:16;;;;;;;17.03;5.47;;;;;;;;;;5054633;28;20036;-58
2024/03/15 03:12:42;;;;;;;15.30;5.57;;;;;;;;;;5052852;28;20048;-60
2024/03/15 03:15:07;;;;;;;14.48;5.80;;;;;;;;;;5051626;28;20044;-55
2024/03/15 03:17:33;;;;;;;12.30;5.97;;;;;;;;;;5053239;28;20049;-58
2024/03/15 03:19:59;;;;;;;11.93;5.53;;;;;;;;;;5051688;28;20037;-57
2024/03/15 03:22:25;;;;;;;;;;;;;;;;;;5053061;28;20104;-59
2024/03/15 03:24:51;;;;;;;14.97;6.30;;;;;;;;;;5053436;28;19905;-60
2024/03/15 03:27:16;;;;;;;22.33;7.53;;;;;;;;;;5053979;28;20366;-60
2024/03/15 03:29:42;;;;;;;17.83;7.57;;;;;;;;;;5054108;28;20262;-60
2024/03/15 03:32:07;;;;;;;26.02;9.07;;;;;;;;;;5055142;28;20075;-60
2024/03/15 03:34:33;;;;;;;17.73;8.45;;;;;;;;;;5054099;28;20049;-59
2024/03/15 03:36:58;;;;;;;19.80;9.17;;;;;;;;;;5051351;28;20049;-60
2024/03/15 03:39:25;;;;;;;18.33;9.02;;;;;;;;;;5051920;28;20626;-61
2024/03/15 03:41:51;;;;;;;26.23;10.57;;;;;;;;;;5051979;28;20029;-60
2024/03/15 03:44:17;;;;;;;24.70;10.88;;;;;;;;;;5053234;28;20271;-59
2024/03/15 03:46:43;;;;;;;22.75;10.82;;;;;;;;;;5053212;28;20056;-59
2024/03/15 03:49:08;;;;;;;20.63;11.27;;;;;;;;;;5054110;28;20037;-60
2024/03/15 03:51:34;;;;;;;24.90;11.15;;;;;;;;;;5050650;28;20255;-60
2024/03/15 03:54:00;;;;;;;21.33;11.25;;;;;;;;;;5055211;28;20087;-58
2024/03/15 03:56:29;;;;;;;22.05;11.07;;;;;;;;;;5053384;28;20028;-59
2024/03/15 03:58:54;;;;;;;24.50;11.83;;;;;;;;;;5051009;28;20037;-59
2024/03/15 04:01:20;;;;;;;24.00;11.73;;;;;;;;;;5053609;28;20332;-60
2024/03/15 04:03:48;;;;;;;29.58;12.52;;;;;;;;;;5050807;28;20285;-60
2024/03/15 04:06:14;;;;;;;25.33;11.77;;;;;;;;;;5050993;28;20045;-58
2024/03/15 04:08:39;;;;;;;22.27;11.23;;;;;;;;;;5051507;28;20267;-58
2024/03/15 04:11:05;;;;;;;27.60;12.00;;;;;;;;;;5052848;28;20037;-59
2024/03/15 04:13:30;;;;;;;22.58;10.98;;;;;;;;;;5052671;28;20021;-61
2024/03/15 04:15:56;;;;;;;24.27;12.30;;;;;;;;;;5050509;28;20041;-57
2024/03/15 04:18:22;;;;;;;24.20;12.33;;;;;;;;;;5054625;28;20053;-59
2024/03/15 04:20:48;;;;;;;23.88;12.55;;;;;;;;;;5052321;28;20053;-60
2024/03/15 04:23:14;;;;;;;31.42;12.43;;;;;;;;;;5053292;28;20029;-62
2024/03/15 04:25:43;;;;;;;;;;;;;;;;;;5053586;28;20053;-59
2024/03/15 04:28:08;;;;;;;31.67;11.93;;;;;;;;;;5055498;28;19939;-60
2024/03/15 04:30:34;;;;;;;33.08;11.23;;;;;;;;;;5055264;28;20267;-61
2024/03/15 04:33:00;;;;;;;30.88;12.88;;;;;;;;;;5054355;28;20060;-59
2024/03/15 04:35:27;;;;;;;31.27;12.40;;;;;;;;;;5054526;28;20087;-60
2024/03/15 04:37:55;;;;;;;28.43;11.10;;;;;;;;;;5057496;28;20049;-59
2024/03/15 04:40:20;;;;;;;31.43;13.00;;;;;;;;;;5056292;28;20263;-59
2024/03/15 04:42:46;;;;;;;26.38;12.15;;;;;;;;;;5058258;28;20263;-60
2024/03/15 04:45:14;;;;;;;20.90;11.80;;;;;;;;;;5054799;28;20096;-60
2024/03/15 04:47:41;;;;;;;22.47;12.10;;;;;;;;;;5056386;28;20036;-61
2024/03/15 04:50:09;;;;;;;24.50;13.65;;;;;;;;;;5054134;28;20274;-59
2024/03/15 04:52:39;;;;;;;32.17;15.67;;;;;;;;;;5057360;28;20133;-60
2024/03/15 04:55:05;;;;;;;25.60;11.57;;;;;;;;;;5056292;28;20288;-58
2024/03/15 04:57:31;;;;;;;24.02;11.43;;;;;;;;;;5057238;28;20330;-59
2024/03/15 04:59:56;;;;;;;21.10;10.60;;;;;;;;;;5055776;28;20041;-59
2024/03/15 05:02:22;;;;;;;18.20;9.55;;;;;;;;;;5055508;28;20029;-55
2024/03/15 05:04:49;;;;;;;20.30;10.65;;;;;;;;;;5056837;28;20030;-58
2024/03/15 05:07:15;;;;;;;23.77;9.80;;;;;;;;;;5058682;28;20064;-59
2024/03/15 05:09:41;;;;;;;17.30;9.15;;;;;;;;;;5055805;28;20266;-57
2024/03/15 05:12:08;;;;;;;18.98;9.60;;;;;;;;;;5053757;28;20047;-59
2024/03/15 05:14:33;;;;;;;30.75;9.25;;;;;;;;;;5056458;28;20021;-59
2024/03/15 05:16:58;;;;;;;19.33;9.17;;;;;;;;;;5058433;28;20060;-57
2024/03/15 05:19:24;;;;;;;19.73;8.57;;;;;;;;;;5057478;28;20251;-56
2024/03/15 05:21:50;;;;;;;21.52;10.23;;;;;;;;;;5054789;28;20038;-57
2024/03/15 05:24:15;;;;;;;19.70;8.30;;;;;;;;;;5057346;28;20055;-59
2024/03/15 05:26:41;;;;;;;24.77;9.40;;;;;;;;;;5057931;28;20061;-59
2024/03/15 05:29:07;;;;;;;25.13;11.38;;;;;;;;;;5054106;28;20044;-57
2024/03/15 05:31:32;;;;;;;18.00;9.23;;;;;;;;;;5057841;28;20033;-62
2024/03/15 05:33:58;;;;;;;26.63;10.00;;;;;;;;;;5056130;28;20038;-57
2024/03/15 05:36:24;;;;;;;28.73;11.18;;;;;;;;;;5053045;28;20037;-59
2024/03/15 05:38:49;;;;;;;16.30;9.87;;;;;;;;;;5055190;28;20073;-58
2024/03/15 05:41:15;;;;;;;19.25;8.25;;;;;;;;;;5054436;28;20076;-56
2024/03/15 05:43:41;;;;;;;21.08;7.45;;;;;;;;;;5056888;28;20053;-59
2024/03/15 05:46:06;;;;;;;14.73;6.80;;;;;;;;;;5054056;28;20049;-54
2024/03/15 05:48:32;;;;;;;18.05;7.18;;;;;;;;;;5055029;28;20110;-58
2024/03/15 05:50:58;;;;;;;13.70;6.93;;;;;;;;;;5055878;28;20041;-59
2024/03/15 05:53:24;;;;;;;12.45;6.88;;;;;;;;;;5055905;28;20037;-57
2024/03/15 05:55:50;;;;;;;10.23;6.53;;;;;;;;;;5054330;28;20033;-58
2024/03/15 05:58:15;;;;;;;13.45;7.30;;;;;;;;;;5056233;28;20040;-57
2024/03/15 06:00:41;;;;;;;15.20;7.60;;;;;;;;;;5057005;28;20036;-57
2024/03/15 06:03:08;;;;;;;14.43;7.60;;;;;;;;;;5055540;28;20097;-57
2024/03/15 06:05:35;;;;;;;14.40;6.60;;;;;;;;;;5055123;28;20113;-57
2024/03/15 06:08:01;;;;;;;17.07;7.43;;;;;;;;;;5055100;28;20290;-56
2024/03/15 06:10:28;;;;;;;;;;;;;;;;;;5055064;28;20041;-56
2024/03/15 06:12:55;;;;;;;14.60;6.47;;;;;;;;;;5056177;28;19913;-59
2024/03/15 06:15:21;;;;;;;9.47;5.63;;;;;;;;;;5052290;28;20056;-56
2024/03/15 06:17:47;;;;;;;12.47;6.30;;;;;;;;;;5054623;28;20322;-56
2024/03/15 06:20:13;;;;;;;11.48;6.53;;;;;;;;;;5056508;28;20259;-56
2024/03/15 06:22:39;;;;;;;15.18;6.97;;;;;;;;;;5054111;28;20047;-58
2024/03/15 06:25:05;;;;;;;17.73;6.57;;;;;;;;;;5054949;28;20033;-56
2024/03/15 06:27:32;;;;;;;14.67;6.80;;;;;;;;;;5054237;28;20049;-56
2024/03/15 06:29:58;;;;;;;23.25;6.43;;;;;;;;;;5072274;28;20282;-59
2024/03/15 06:32:26;;;;;;;10.40;6.30;;;;;;;;;;5057571;28;20068;-55
2024/03/15 06:34:52;;;;;;;17.33;6.87;;;;;;;;;;5054511;28;20072;-55
2024/03/15 06:37:20;;;;;;;13.25;6.45;;;;;;;;;;5057544;28;20277;-57
2024/03/15 06:42:24;;;;;;;15.77;5.83;;;;;;;;;;5056754;28;20243;-59
2024/03/15 06:45:03;;;;;;;10.73;5.53;;;;;;;;;;5055320;28;20277;-57
2024/03/15 06:47:31;;;;;;;15.80;6.90;;;;;;;;;;5057482;28;20302;-56
2024/03/15 06:50:30;;;;;;;14.77;6.13;;;;;;;;;;5052810;28;20270;-57
2024/03/15 06:52:54;;;;;;;13.85;5.47;;;;;;;;;;5053192;28;20266;-58
2024/03/15 06:55:20;;;;;;;9.40;5.72;;;;;;;;;;5057146;28;20029;-58
2024/03/15 06:57:48;;;;;;;10.05;5.70;;;;;;;;;;5054981;28;20033;-56
2024/03/15 07:00:14;;;;;;;12.40;5.40;;;;;;;;;;5053571;28;20038;-54
2024/03/15 07:02:43;;;;;;;14.65;6.47;;;;;;;;;;5052440;28;20262;-59
2024/03/15 07:05:11;;;;;;;14.60;5.97;;;;;;;;;;5053474;28;20177;-57
2024/03/15 07:07:37;;;;;;;15.07;5.27;;;;;;;;;;5052420;28;20283;-58
2024/03/15 07:10:03;;;;;;;18.63;6.82;;;;;;;;;;5053001;28;20250;-56
2024/03/15 07:12:29;;;;;;;12.60;6.22;;;;;;;;;;5053226;28;20031;-56
2024/03/15 07:14:55;;;;;;;12.32;5.78;;;;;;;;;;5052513;28;20025;-58
2024/03/15 07:17:22;;;;;;;12.98;5.95;;;;;;;;;;5055662;28;20025;-56
2024/03/15 07:19:49;;;;;;;14.70;6.10;;;;;;;;;;5055372;28;20045;-57
2024/03/15 07:22:15;;;;;;;9.33;5.43;;;;;;;;;;5052098;28;20250;-58
2024/03/15 07:24:43;;;;;;;13.33;5.60;;;;;;;;;;5051934;28;20343;-57
2024/03/15 07:27:08;;;;;;;11.73;6.03;;;;;;;;;;5053194;28;20278;-57
2024/03/15 07:29:35;;;;;;;10.55;5.00;;;;;;;;;;5049151;28;20271;-58
2024/03/15 07:32:01;;;;;;;8.10;5.17;;;;;;;;;;5054968;28;20937;-57
2024/03/15 07:34:27;;;;;;;13.97;5.90;;;;;;;;;;5053157;28;20048;-56
2024/03/15 07:36:56;;;;;;;9.93;5.30;;;;;;;;;;5052352;28;20137;-57
2024/03/15 07:39:23;;;;;;;10.50;5.20;;;;;;;;;;5052097;28;20316;-58
2024/03/15 07:41:49;;;;;;;9.10;4.93;;;;;;;;;;5055014;28;20254;-57
2024/03/15 07:44:15;;;;;;;11.05;4.82;;;;;;;;;;5050592;28;20263;-57
2024/03/15 07:46:42;;;;;;;12.10;4.38;;;;;;;;;;5055741;28;20055;-55
2024/03/15 07:49:08;;;;;;;9.57;4.40;;;;;;;;;;5050202;28;20033;-54
2024/03/15 07:51:34;;;;;;;11.70;3.60;;;;;;;;;;5051815;28;20254;-57
2024/03/15 07:54:00;;;;;;;13.25;4.10;;;;;;;;;;5053399;28;20042;-58
2024/03/15 07:56:26;;;;;;;14.50;4.93;;;;;;;;;;5051576;28;20044;-58
2024/03/15 07:58:52;;;;;;;13.30;4.00;;;;;;;;;;5051325;28;20029;-56
2024/03/15 08:01:19;;;;;;;13.13;4.28;;;;;;;;;;5053512;28;20072;-59
2024/03/15 08:03:45;;;;;;;8.63;3.93;;;;;;;;;;5055471;28;20040;-58
2024/03/15 08:06:10;;;;;;;11.88;3.90;;;;;;;;;;5057340;28;20290;-55
2024/03/15 08:08:36;;;;;;;8.55;3.97;;;;;;;;;;5056306;28;20018;-57
2024/03/15 08:11:02;;;;;;;8.43;3.92;;;;;;;;;;5054677;28;20045;-55
2024/03/15 08:13:30;;;;;;;14.68;4.63;;;;;;;;;;5059501;28;20029;-58
2024/03/15 08:15:59;;;;;;;11.40;5.17;;;;;;;;;;5057172;28;20025;-57
2024/03/15 08:18:25;;;;;;;8.50;5.27;;;;;;;;;;5056253;28;20274;-55
2024/03/15 08:20:50;;;;;;;9.50;4.72;;;;;;;;;;5057090;28;20251;-59
2024/03/15 08:23:17;;;;;;;9.60;4.68;;;;;;;;;;5055565;28;20026;-58
2024/03/15 08:25:43;;;;;;;14.67;4.73;;;;;;;;;;5056229;28;20018;-58
2024/03/15 08:28:09;;;;;;;12.68;4.88;;;;;;;;;;5056891;28;20282;-56
2024/03/15 08:30:34;;;;;;;17.23;6.00;;;;;;;;;;5055641;28;20055;-57
2024/03/15 08:32:59;;;;;;;16.13;5.70;;;;;;;;;;5056540;28;20029;-58
2024/03/15 08:35:26;;;;;;;9.10;4.43;;;;;;;;;;5056632;28;20278;-59
2024/03/15 08:37:52;;;;;;;9.23;4.65;;;;;;;;;;5060163;28;20043;-57
2024/03/15 08:40:17;;;;;;;16.38;4.43;;;;;;;;;;5056907;28;20037;-56
2024/03/15 08:42:45;;;;;;;9.10;4.65;;;;;;;;;;5057438;28;20068;-55
2024/03/15 08:45:10;;;;;;;10.83;5.70;;;;;;;;;;5053931;28;20492;-55
2024/03/15 08:47:39;;;;;;;12.00;7.30;;;;;;;;;;5056850;28;20282;-58
2024/03/15 08:50:08;;;;;;;11.57;6.67;;;;;;;;;;5055422;28;20036;-55
2024/03/15 08:52:33;;;;;;;13.40;8.10;;;;;;;;;;5061099;28;20261;-56
2024/03/15 08:54:59;;;;;;;22.27;8.60;;;;;;;;;;5057781;28;21293;-57
2024/03/15 08:57:24;;;;;;;17.25;8.57;;;;;;;;;;5053079;28;20104;-56
2024/03/15 08:59:50;;;;;;;18.50;8.18;;;;;;;;;;5057037;28;20115;-53
2024/03/15 09:02:17;;;;;;;14.02;7.88;;;;;;;;;;5054323;28;20060;-57
2024/03/15 09:04:45;;;;;;;20.63;7.53;;;;;;;;;;5053186;28;20105;-57
2024/03/15 09:07:10;;;;;;;19.80;8.83;;;;;;;;;;5054253;28;20116;-57
2024/03/15 09:09:40;;;;;;;17.88;6.40;;;;;;;;;;5054602;28;20259;-58
2024/03/15 09:12:05;;;;;;;14.23;6.97;;;;;;;;;;5054493;28;20033;-56
2024/03/15 09:14:32;;;;;;;15.23;5.90;;;;;;;;;;5051450;28;20326;-58
2024/03/15 09:16:58;;;;;;;13.57;6.07;;;;;;;;;;5056001;28;20036;-58
2024/03/15 09:19:25;;;;;;;11.27;4.70;;;;;;;;;;5052421;28;20259;-51
2024/03/15 09:21:51;;;;;;;16.98;5.20;;;;;;;;;;5054859;28;20254;-56
2024/03/15 09:24:18;;;;;;;13.77;4.13;;;;;;;;;;5053254;28;20037;-58
2024/03/15 09:26:43;;;;;;;;;;;;;;;;;;5054364;28;20048;-58
2024/03/15 09:29:09;;;;;;;7.27;3.47;;;;;;;;;;5054955;28;19908;-58
2024/03/15 09:31:36;;;;;;;9.17;3.53;;;;;;;;;;5056373;28;20037;-57
2024/03/15 09:34:02;;;;;;;9.97;3.80;;;;;;;;;;5055267;28;20029;-56
2024/03/15 09:36:28;;;;;;;7.70;3.85;;;;;;;;;;5057380;28;20035;-56
2024/03/15 09:38:56;;;;;;;9.23;3.17;;;;;;;;;;5058122;28;20037;-58
2024/03/15 09:41:22;;;;;;;12.57;3.40;;;;;;;;;;5054775;28;20032;-56
2024/03/15 09:43:48;;;;;;;13.20;3.13;;;;;;;;;;5059535;28;20083;-56
2024/03/15 09:46:17;;;;;;;11.10;2.85;;;;;;;;;;5056848;28;20029;-58
2024/03/15 09:48:45;;;;;;;11.60;3.50;;;;;;;;;;5058323;28;20029;-57
2024/03/15 09:51:13;;;;;;;7.47;2.27;;;;;;;;;;5054822;28;20059;-57
2024/03/15 09:53:39;;;;;;;10.07;2.40;;;;;;;;;;5057767;28;20029;-56
2024/03/15 09:56:05;;;;;;;9.50;2.47;;;;;;;;;;5055827;28;20033;-56
2024/03/15 09:58:32;;;;;;;6.93;2.10;;;;;;;;;;5054261;28;20026;-58
2024/03/15 10:00:58;;;;;;;;;;;;;;;;;;5052578;28;20033;-55
2024/03/15 10:03:24;;;;;;;14.50;2.63;;;;;;;;;;5055834;28;19915;-59
2024/03/15 10:05:49;;;;;;;11.95;2.35;;;;;;;;;;5061255;28;20052;-58
2024/03/15 10:08:15;;;;;;;13.93;2.30;;;;;;;;;;5054135;28;20038;-59
2024/03/15 10:10:41;;;;;;;12.70;2.28;;;;;;;;;;5053658;28;20025;-58
2024/03/15 10:13:07;;;;;;;11.48;2.22;;;;;;;;;;5055617;28;20037;-58
2024/03/15 10:15:32;;;;;;;11.35;2.78;;;;;;;;;;5055855;28;20029;-56
2024/03/15 10:17:57;;;;;;;7.87;2.40;;;;;;;;;;5054660;28;20042;-56
2024/03/15 10:20:24;;;;;;;8.77;2.00;;;;;;;;;;5054365;28;20294;-58
2024/03/15 10:22:54;;;;;;;12.77;2.57;;;;;;;;;;5055698;28;20045;-57
2024/03/15 10:25:21;;;;;;;8.40;2.93;;;;;;;;;;5074697;28;20052;-56
2024/03/15 10:27:48;;;;;;;13.43;3.20;;;;;;;;;;5054917;28;20052;-58
2024/03/15 10:30:19;;;;;;;10.03;2.60;;;;;;;;;;5049931;28;20041;-59
2024/03/15 10:32:47;;;;;;;12.73;2.47;;;;;;;;;;5050986;28;20079;-62
2024/03/15 10:35:13;;;;;;;10.33;2.83;;;;;;;;;;5054141;28;20029;-53
2024/03/15 10:37:39;;;;;;;14.23;3.40;;;;;;;;;;5053923;28;20043;-60
2024/03/15 10:40:05;;;;;;;;;;;;;;;;;;5053801;28;20081;-56
2024/03/15 10:42:31;;;;;;;11.67;2.80;;;;;;;;;;5053765;28;19999;-56
2024/03/15 10:44:56;;;;;;;14.48;2.70;;;;;;;;;;5054334;28;20040;-57
2024/03/15 10:47:22;;;;;;;8.85;2.70;;;;;;;;;;5054595;28;20034;-57
2024/03/15 10:49:49;;;;;;;6.10;2.20;;;;;;;;;;5057366;28;20021;-55
2024/03/15 10:52:16;;;;;;;12.25;3.08;;;;;;;;;;5053474;28;20060;-57
2024/03/15 10:54:42;;;;;;;10.83;2.70;;;;;;;;;;5056262;28;20033;-59
2024/03/15 10:57:09;;;;;;;8.70;2.33;;;;;;;;;;5052085;28;20100;-57
2024/03/15 10:59:36;;;;;;;7.83;2.40;;;;;;;;;;5057733;28;20040;-58
2024/03/15 11:02:02;;;;;;;12.50;2.47;;;;;;;;;;5056837;28;20025;-55
2024/03/15 11:04:27;;;;;;;10.67;2.03;;;;;;;;;;5051879;28;20040;-58
2024/03/15 11:06:53;;;;;;;9.43;2.25;;;;;;;;;;5051634;28;20622;-56
2024/03/15 11:09:22;;;;;;;7.63;2.42;;;;;;;;;;5055035;28;20037;-58
2024/03/15 11:12:00;;;;;;;6.13;1.87;;;;;;;;;;5050536;28;20037;-56
2024/03/15 11:14:30;;;;;;;10.73;1.60;;;;;;;;;;5052902;28;20032;-57
2024/03/15 11:16:56;;;;;;;7.70;2.40;;;;;;;;;;5051574;28;20041;-58
2024/03/15 11:19:22;;;;;;;5.13;1.80;;;;;;;;;;5055038;28;20025;-59
2024/03/15 11:21:47;;;;;;;11.98;1.70;;;;;;;;;;5053312;28;20041;-59
2024/03/15 11:24:16;;;;;;;8.20;1.80;;;;;;;;;;5052656;28;20045;-61
2024/03/15 11:26:41;;;;;;;7.10;1.90;;;;;;;;;;5056487;28;20041;-59
2024/03/15 11:29:15;;;;;;;11.23;2.20;;;;;;;;;;5055328;28;20025;-59
2024/03/15 11:31:44;;;;;;;5.80;1.47;;;;;;;;;;5049896;28;20029;-59
2024/03/15 11:34:11;;;;;;;4.27;1.83;;;;;;;;;;5055121;28;20021;-55
2024/03/15 11:36:37;;;;;;;8.48;2.15;;;;;;;;;;5055570;28;20116;-54
2024/03/15 11:39:02;;;;;;;5.57;2.00;;;;;;;;;;5050298;28;20096;-58
2024/03/15 11:41:30;;;;;;;5.38;1.85;;;;;;;;;;5052675;28;20037;-55
2024/03/15 11:43:55;;;;;;;6.33;1.50;;;;;;;;;;5051640;28;20037;-60
2024/03/15 11:46:21;;;;;;;9.02;1.90;;;;;;;;;;5055085;28;20063;-59
2024/03/15 11:48:46;;;;;;;7.63;1.42;;;;;;;;;;5057089;28;20116;-59
2024/03/15 11:51:13;;;;;;;4.45;1.30;;;;;;;;;;5054988;28;20049;-58
2024/03/15 11:53:39;;;;;;;3.87;1.53;;;;;;;;;;5055056;28;20045;-57
2024/03/15 11:56:04;;;;;;;7.68;1.95;;;;;;;;;;5054362;28;20041;-59
2024/03/15 11:58:30;;;;;;;3.25;1.50;;;;;;;;;;5052602;28;20105;-58
2024/03/15 12:00:55;;;;;;;4.88;1.88;;;;;;;;;;5056008;28;20045;-59
2024/03/15 12:03:30;;;;;;;6.30;1.67;;;;;;;;;;5054975;28;20038;-57
2024/03/15 12:05:58;;;;;;;9.57;1.70;;;;;;;;;;5056236;28;20057;-59
2024/03/15 12:08:24;;;;;;;8.40;1.93;;;;;;;;;;5051555;28;20052;-60
2024/03/15 12:10:51;;;;;;;5.00;1.80;;;;;;;;;;5057323;28;20033;-56
2024/03/15 12:13:23;;;;;;;3.63;1.77;;;;;;;;;;5056231;28;20029;-58
2024/03/15 12:15:50;;;;;;;16.67;2.67;;;;;;;;;;5054551;28;20040;-60
2024/03/15 12:18:15;;;;;;;;;;;;;;;;;;5053579;28;20049;-59
2024/03/15 12:20:41;;;;;;;4.30;1.70;;;;;;;;;;5055306;28;19924;-59
2024/03/15 12:23:11;;;;;;;8.67;1.77;;;;;;;;;;5050478;28;20094;-58
2024/03/15 12:25:37;;;;;;;5.47;1.83;;;;;;;;;;5049820;28;20022;-59
2024/03/15 12:28:05;;;;;;;6.97;2.10;;;;;;;;;;5053539;28;20036;-57
2024/03/15 12:30:31;;;;;;;7.67;2.20;;;;;;;;;;5055491;28;20068;-61
2024/03/15 12:32:57;;;;;;;5.25;2.05;;;;;;;;;;5055275;28;20036;-56
2024/03/15 12:35:22;;;;;;;6.68;2.25;;;;;;;;;;5049605;28;20045;-59
2024/03/15 12:37:47;;;;;;;5.82;2.15;;;;;;;;;;5050149;28;20035;-58
2024/03/15 12:40:16;;;;;;;10.75;3.05;;;;;;;;;;5056180;28;20038;-59
2024/03/15 12:42:42;;;;;;;8.20;2.50;;;;;;;;;;5053080;28;20048;-59
2024/03/15 12:45:08;;;;;;;9.23;3.70;;;;;;;;;;5057342;28;20041;-57
2024/03/15 12:47:36;;;;;;;9.05;3.10;;;;;;;;;;5049132;28;20037;-62
2024/03/15 12:50:09;;;;;;;7.30;4.60;;;;;;;;;;5055298;28;20025;-59
2024/03/15 12:52:35;;;;;;;5.93;3.97;;;;;;;;;;5057219;28;20041;-59
2024/03/15 12:55:00;;;;;;;8.20;3.43;;;;;;;;;;5056636;28;20029;-59
2024/03/15 12:57:28;;;;;;;8.85;3.03;;;;;;;;;;5055332;28;20266;-59
2024/03/15 12:59:54;;;;;;;5.37;2.90;;;;;;;;;;5056982;28;20060;-59
2024/03/15 13:02:19;;;;;;;6.57;2.78;;;;;;;;;;5055565;28;20041;-58
2024/03/15 13:04:44;;;;;;;8.37;3.03;;;;;;;;;;5056332;28;20044;-60
2024/03/15 13:07:09;;;;;;;5.47;2.73;;;;;;;;;;5055843;28;20029;-57
2024/03/15 13:09:35;;;;;;;6.80;2.77;;;;;;;;;;5053016;28;20034;-57
2024/03/15 13:12:01;;;;;;;12.30;2.90;;;;;;;;;;5058203;28;20033;-58
2024/03/15 13:14:26;;;;;;;;;;;;;;;;;;5056252;28;20025;-59
2024/03/15 13:16:51;;;;;;;8.47;3.27;;;;;;;;;;5054492;28;19917;-58
2024/03/15 13:19:17;;;;;;;7.22;4.05;;;;;;;;;;5056129;28;20033;-59
2024/03/15 13:21:43;;;;;;;8.35;3.92;;;;;;;;;;5053708;28;20045;-60
2024/03/15 13:24:08;;;;;;;8.30;3.93;;;;;;;;;;5055058;28;20093;-60
2024/03/15 13:26:33;;;;;;;9.33;3.50;;;;;;;;;;5052715;28;20045;-63
2024/03/15 13:28:59;;;;;;;12.23;4.77;;;;;;;;;;5053620;28;20041;-58
2024/03/15 13:31:25;;;;;;;5.95;3.83;;;;;;;;;;5051633;28;20025;-60
2024/03/15 13:33:50;;;;;;;9.33;4.00;;;;;;;;;;5052821;28;20052;-59
2024/03/15 13:36:15;;;;;;;7.05;4.00;;;;;;;;;;5054003;28;20021;-58
2024/03/15 13:38:41;;;;;;;5.72;3.80;;;;;;;;;;5054671;28;20051;-59
2024/03/15 13:41:12;;;;;;;5.60;3.30;;;;;;;;;;5055563;28;20064;-58
2024/03/15 13:43:39;;;;;;;7.43;3.20;;;;;;;;;;5054730;28;20041;-60
2024/03/15 13:46:08;;;;;;;5.00;3.00;;;;;;;;;;5055452;28;20032;-58
2024/03/15 13:48:33;;;;;;;8.10;4.03;;;;;;;;;;5054378;28;20032;-59
2024/03/15 13:50:59;;;;;;;16.90;5.53;;;;;;;;;;5055544;28;20041;-59
2024/03/15 13:53:24;;;;;;;8.98;3.90;;;;;;;;;;5054108;28;20043;-59
2024/03/15 13:55:50;;;;;;;12.32;5.00;;;;;;;;;;5053977;28;20055;-58
2024/03/15 13:58:15;;;;;;;18.33;4.87;;;;;;;;;;5054678;28;20033;-57
2024/03/15 14:00:42;;;;;;;14.57;4.70;;;;;;;;;;5051423;28;20278;-58
2024/03/15 14:03:08;;;;;;;9.13;2.27;;;;;;;;;;5054976;28;20051;-59
2024/03/15 14:05:37;;;;;;;4.95;1.05;;;;;;;;;;5054380;28;20029;-59
2024/03/15 14:08:04;;;;;;;4.53;1.20;;;;;;;;;;5051668;28;20045;-59
2024/03/15 14:10:30;;;;;;;5.10;1.53;;;;;;;;;;5056237;28;20032;-59
2024/03/15 14:12:56;;;;;;;15.73;4.60;;;;;;;;;;5055462;28;20045;-58
2024/03/15 14:15:21;;;;;;;11.35;2.90;;;;;;;;;;5060813;28;20033;-60
2024/03/15 14:17:46;;;;;;;8.90;1.80;;;;;;;;;;5057409;28;20044;-58
2024/03/15 14:20:12;;;;;;;5.15;1.10;;;;;;;;;;5053116;28;20777;-61
2024/03/15 14:22:42;;;;;;;3.17;1.20;;;;;;;;;;5053212;28;20038;-56
2024/03/15 14:25:08;;;;;;;2.90;0.83;;;;;;;;;;5052779;28;20075;-60
2024/03/15 14:27:34;;;;;;;5.53;1.23;;;;;;;;;;5053302;28;20037;-58
2024/03/15 14:30:00;;;;;;;4.97;1.30;;;;;;;;;;5053217;28;20030;-59
2024/03/15 14:32:25;;;;;;;;;;;;;;;;;;5052621;28;20037;-58